Taf długi - Polska

Taf długi - Polska


503
FTPL50 SOWR 200500
TAF EPGD 200500Z 2006/2106 VRB02KT CAVOK
    TEMPO 2008/2022 20008KT 6000 SHRA BKN008 BKN020CB
    PROB40 TEMPO 2012/2020 24006G16KT 4000 TSRA BKN005 BKN012CB
    PROB30 2022/2106 1800 BR BKN007=
TAF EPKK 200500Z 2006/2106 VRB02KT 1500 BR NSC
    PROB30 TEMPO 2006/2007 0600 FG BKN002
    BECMG 2007/2009 9999 BKN040
    BECMG 2020/2022 2000 BR NSC
    TEMPO 2022/2106 0500 FG SCT004 =
TAF EPPO 200500Z 2006/2106 17007KT CAVOK
    TEMPO 2014/2106 BKN040 BECMG 2020/2022 VRB03KT
    PROB30 TEMPO 2022/2106 SHRA BKN030CB=
TAF EPRZ 200500Z 2006/2106 29008KT 9999 BKN035
    TEMPO 2006/2008 BKN007
    PROB30 TEMPO 2013/2019 29012G25KT 4000 TSRA BKN020CB
    BECMG 2021/2023 3000 BR SCT040
    PROB40 TEMPO 2100/2106 0500 FG BKN002 =
TAF EPWA 200500Z 2006/2106 35004KT CAVOK
    BECMG 2008/2010 27006KT 9999 SCT035
    BECMG 2015/2017 19007KT CAVOK=




Instytut Meteorologii i Gospodarki Wodnej nie ponosi odpowiedzialności za jakiekolwiek straty spowodowane stosowaniem danych przedstawionych w serwisie WWW.
Dane i Produkty chronione prawem autorskim IMGW. Jakiekolwiek wykorzystywanie lub rozpowszechnianie zabronione.


Powrót do listy produktów